Time;durP1;ratioP1;P1;durP2;ratioP2;P2;SDS_P1;SDS_P2;PMS_P1;PMS_P2;Temp;Humidity;BMP_temperature;BMP_pressure;BME280_temperature;BME280_humidity;BME280_pressure;Samples;Min_cycle;Max_cycle;Signal;HPM_P1;HPM_P2
2022/03/22 00:01:10;;;;;;;32.80;21.13;;;3.90;68.80;;;;;;5017409;28;20249;-72
2022/03/22 00:03:38;;;;;;;39.20;22.35;;;3.90;68.60;;;;;;5017421;28;20182;-68
2022/03/22 00:06:04;;;;;;;32.72;21.13;;;4.00;68.20;;;;;;5017271;28;20264;-68
2022/03/22 00:08:31;;;;;;;32.27;21.60;;;4.00;68.00;;;;;;5017667;28;20175;-72
2022/03/22 00:10:58;;;;;;;34.78;21.67;;;4.00;68.90;;;;;;5013571;28;20673;-68
2022/03/22 00:13:25;;;;;;;33.45;20.63;;;4.00;69.00;;;;;;5014018;28;20171;-72
2022/03/22 00:15:52;;;;;;;32.35;21.65;;;3.90;69.00;;;;;;5008380;28;20553;-68
2022/03/22 00:18:19;;;;;;;33.40;22.25;;;3.90;69.20;;;;;;4994279;28;20172;-68
2022/03/22 00:20:45;;;;;;;33.28;22.80;;;3.90;69.60;;;;;;4994058;28;20585;-68
2022/03/22 00:23:13;;;;;;;32.70;20.80;;;3.90;69.70;;;;;;4995395;28;20179;-68
2022/03/22 00:25:38;;;;;;;30.52;20.38;;;3.90;69.50;;;;;;4993971;28;20484;-72
2022/03/22 00:28:05;;;;;;;36.30;23.65;;;3.80;69.50;;;;;;4993879;28;20559;-68
2022/03/22 00:30:33;;;;;;;35.85;22.00;;;3.80;70.10;;;;;;4993847;28;20218;-68
2022/03/22 00:33:06;;;;;;;34.92;23.13;;;3.80;70.00;;;;;;4994269;28;20186;-68
2022/03/22 00:35:39;;;;;;;30.88;22.75;;;3.70;70.10;;;;;;4994010;28;20211;-68
2022/03/22 00:38:12;;;;;;;35.20;22.48;;;3.70;70.20;;;;;;4994197;28;20178;-72
2022/03/22 00:40:39;;;;;;;32.40;23.10;;;3.60;70.40;;;;;;4994040;28;20238;-72
2022/03/22 00:43:06;;;;;;;33.65;23.60;;;3.60;70.20;;;;;;4993760;28;20617;-72
2022/03/22 00:45:33;;;;;;;32.55;22.48;;;3.60;70.50;;;;;;4994895;28;20219;-68
2022/03/22 00:48:02;;;;;;;33.47;21.20;;;3.50;70.70;;;;;;4993796;28;20588;-68
2022/03/22 00:50:36;;;;;;;39.60;23.17;;;3.50;71.00;;;;;;4993321;28;20226;-72
2022/03/22 00:53:07;;;;;;;39.30;22.48;;;3.40;71.00;;;;;;4993654;28;20230;-68
2022/03/22 00:55:34;;;;;;;36.90;22.13;;;3.40;71.10;;;;;;4993838;28;20673;-71
2022/03/22 00:58:03;;;;;;;34.22;22.40;;;3.30;70.60;;;;;;4993649;28;20186;-68
2022/03/22 01:00:29;;;;;;;42.53;24.08;;;3.30;70.60;;;;;;4993478;28;20271;-69
2022/03/22 01:03:01;;;;;;;32.53;22.45;;;3.30;70.70;;;;;;4993476;28;20663;-71
2022/03/22 01:05:34;;;;;;;31.98;21.67;;;3.30;70.60;;;;;;4993375;28;20258;-69
2022/03/22 01:08:10;;;;;;;37.15;23.70;;;3.20;71.00;;;;;;4993185;28;20704;-72
2022/03/22 01:10:39;;;;;;;33.03;22.15;;;3.20;71.00;;;;;;4994939;28;20287;-69
2022/03/22 01:13:09;;;;;;;37.10;23.50;;;3.20;71.30;;;;;;4996557;28;20179;-68
2022/03/22 01:15:42;;;;;;;33.95;23.08;;;3.20;71.50;;;;;;5000018;28;20202;-72
2022/03/22 01:18:09;;;;;;;37.22;23.20;;;3.20;71.80;;;;;;5016672;28;20186;-71
2022/03/22 01:20:39;;;;;;;34.58;22.20;;;3.20;71.90;;;;;;5016007;28;20874;-72
2022/03/22 01:23:08;;;;;;;35.92;22.92;;;3.20;71.90;;;;;;5015758;28;20218;-69
2022/03/22 01:25:37;;;;;;;36.88;23.45;;;3.20;71.90;;;;;;5016124;28;20211;-73
2022/03/22 01:28:09;;;;;;;35.53;22.52;;;3.20;71.90;;;;;;5015803;28;20174;-72
2022/03/22 01:30:37;;;;;;;33.28;24.13;;;3.20;71.70;;;;;;5015973;28;20202;-68
2022/03/22 01:33:04;;;;;;;40.38;23.58;;;3.10;72.00;;;;;;5033807;28;20217;-72
2022/03/22 01:35:31;;;;;;;35.58;22.55;;;3.10;71.90;;;;;;5015841;28;20210;-69
2022/03/22 01:37:57;;;;;;;32.22;22.17;;;3.10;71.90;;;;;;5015806;28;20185;-69
2022/03/22 01:40:27;;;;;;;34.50;24.90;;;3.00;71.60;;;;;;5015643;28;20210;-74
2022/03/22 01:42:56;;;;;;;34.85;23.50;;;3.00;71.20;;;;;;5016301;28;20174;-69
2022/03/22 01:45:23;;;;;;;36.30;24.27;;;3.00;71.10;;;;;;5016247;28;20206;-72
2022/03/22 01:47:50;;;;;;;39.92;22.52;;;3.00;71.10;;;;;;5015826;28;20174;-69
2022/03/22 01:50:22;;;;;;;38.20;23.10;;;2.90;71.50;;;;;;5015688;28;20214;-73
2022/03/22 01:52:48;;;;;;;35.95;22.80;;;2.90;71.00;;;;;;5015481;28;20262;-73
2022/03/22 01:55:18;;;;;;;39.63;26.92;;;2.90;70.80;;;;;;5015706;28;20217;-73
2022/03/22 01:57:45;;;;;;;38.35;24.13;;;2.90;71.00;;;;;;5015610;28;20659;-73
2022/03/22 02:00:19;;;;;;;36.10;22.50;;;2.90;71.30;;;;;;5015628;28;20674;-69
2022/03/22 02:05:54;;;;;;;33.47;23.38;;;2.80;71.60;;;;;;5033293;28;20710;-69
2022/03/22 02:08:24;;;;;;;36.72;23.55;;;2.80;71.60;;;;;;5015636;28;20266;-73
2022/03/22 02:10:50;;;;;;;36.15;23.48;;;2.80;71.90;;;;;;5015322;28;20265;-72
2022/03/22 02:13:19;;;;;;;31.65;21.85;;;2.80;71.30;;;;;;5015652;28;20554;-69
2022/03/22 02:15:52;;;;;;;33.97;23.33;;;2.80;70.90;;;;;;5010298;28;20199;-73
2022/03/22 02:18:24;;;;;;;34.60;21.85;;;2.80;70.70;;;;;;4995900;28;20229;-72
2022/03/22 02:20:50;;;;;;;31.77;21.95;;;2.80;70.60;;;;;;4997125;28;20573;-69
2022/03/22 02:23:51;;;;;;;40.83;21.40;;;2.90;70.70;;;;;;4999295;28;20184;-68
2022/03/22 02:26:19;;;;;;;32.80;22.00;;;2.90;71.30;;;;;;4999678;28;20742;-72
2022/03/22 02:28:46;;;;;;;34.75;21.98;;;2.90;71.50;;;;;;4999573;28;20191;-69
2022/03/22 02:31:15;;;;;;;29.55;20.15;;;2.90;71.50;;;;;;5017356;28;20287;-72
2022/03/22 02:33:43;;;;;;;33.58;22.10;;;2.90;70.90;;;;;;4999801;28;20175;-72
2022/03/22 02:36:10;;;;;;;29.25;20.75;;;2.90;70.80;;;;;;4999133;28;20695;-73
2022/03/22 02:38:37;;;;;;;38.40;22.42;;;2.90;70.60;;;;;;5017083;28;20511;-69
2022/03/22 02:41:05;;;;;;;31.92;21.52;;;3.00;71.40;;;;;;4999230;28;20269;-73
2022/03/22 02:43:36;;;;;;;29.45;19.88;;;3.00;71.90;;;;;;4999217;28;20542;-69
2022/03/22 02:46:05;;;;;;;34.35;21.00;;;3.00;71.60;;;;;;4999289;28;20297;-69
2022/03/22 02:48:34;;;;;;;33.72;21.80;;;3.00;71.60;;;;;;4999056;28;20648;-73
2022/03/22 02:51:01;;;;;;;30.20;21.77;;;3.00;71.40;;;;;;4998874;28;20230;-69
2022/03/22 02:53:27;;;;;;;32.22;20.67;;;2.90;71.60;;;;;;4999240;28;20190;-69
2022/03/22 02:55:53;;;;;;;35.00;20.93;;;2.90;71.70;;;;;;4998947;28;20203;-69
2022/03/22 02:58:22;;;;;;;27.92;20.85;;;2.90;71.40;;;;;;4998977;28;20426;-69
2022/03/22 03:00:48;;;;;;;29.08;20.15;;;2.90;71.20;;;;;;4998863;28;20223;-69
2022/03/22 03:03:17;;;;;;;33.78;19.85;;;2.90;70.70;;;;;;4998977;28;20175;-73
2022/03/22 03:05:43;;;;;;;33.85;21.83;;;2.90;70.40;;;;;;4998811;28;20207;-73
2022/03/22 03:08:09;;;;;;;31.93;22.33;;;2.90;70.40;;;;;;4998762;28;20270;-69
2022/03/22 03:10:35;;;;;;;37.95;21.92;;;2.90;70.80;;;;;;4998349;28;20206;-70
2022/03/22 03:13:04;;;;;;;31.20;21.35;;;2.90;70.90;;;;;;4998579;28;20167;-69
2022/03/22 03:15:30;;;;;;;34.38;21.48;;;2.80;71.30;;;;;;5001561;28;20198;-69
2022/03/22 03:17:57;;;;;;;27.53;21.23;;;2.80;71.70;;;;;;5018101;28;20182;-72
2022/03/22 03:20:30;;;;;;;28.67;20.70;;;2.70;72.00;;;;;;5017930;28;20452;-72
2022/03/22 03:22:59;;;;;;;29.75;20.77;;;2.70;71.90;;;;;;5018203;28;20189;-73
2022/03/22 03:25:28;;;;;;;32.10;21.60;;;2.70;71.40;;;;;;5017901;28;20681;-69
2022/03/22 03:27:55;;;;;;;31.60;21.33;;;2.80;71.60;;;;;;5035666;28;20171;-73
2022/03/22 03:30:23;;;;;;;27.83;20.40;;;2.80;71.40;;;;;;5017978;28;20214;-73
2022/03/22 03:32:49;;;;;;;32.33;21.35;;;2.80;71.00;;;;;;5017935;28;20182;-73
2022/03/22 03:35:15;;;;;;;35.35;20.20;;;2.80;71.50;;;;;;5018128;28;20201;-69
2022/03/22 03:37:43;;;;;;;28.40;20.48;;;2.70;71.80;;;;;;5017796;28;20557;-73
2022/03/22 03:40:10;;;;;;;30.75;21.08;;;2.70;72.00;;;;;;5035553;28;20659;-73
2022/03/22 03:42:44;;;;;;;30.33;21.42;;;2.70;72.20;;;;;;5017797;28;20683;-73
2022/03/22 03:47:57;;;;;;;37.75;21.90;;;2.60;72.00;;;;;;5035868;28;20525;-69
2022/03/22 03:50:25;;;;;;;31.58;20.00;;;2.70;72.40;;;;;;5017630;28;20655;-73
2022/03/22 03:52:51;;;;;;;35.17;21.80;;;2.70;72.30;;;;;;5017465;28;20273;-68
2022/03/22 03:55:17;;;;;;;36.13;21.17;;;2.70;71.80;;;;;;5017364;28;20237;-72
2022/03/22 03:57:49;;;;;;;39.97;22.70;;;2.70;71.90;;;;;;5017421;28;20257;-69
2022/03/22 04:00:15;;;;;;;36.45;23.02;;;2.80;71.30;;;;;;5017498;28;20973;-69
2022/03/22 04:02:42;;;;;;;46.80;27.48;;;2.80;71.80;;;;;;5017488;28;20701;-73
2022/03/22 04:05:10;;;;;;;38.17;23.30;;;2.70;71.90;;;;;;5017209;28;20289;-74
2022/03/22 04:07:36;;;;;;;31.55;20.98;;;2.70;72.30;;;;;;5016920;28;20416;-73
2022/03/22 04:10:03;;;;;;;34.10;21.73;;;2.60;72.20;;;;;;5017084;28;20210;-72
2022/03/22 04:12:29;;;;;;;29.48;20.67;;;2.60;72.30;;;;;;5016529;28;20230;-69
2022/03/22 04:14:55;;;;;;;29.85;20.52;;;2.60;72.30;;;;;;5017108;28;20177;-69
2022/03/22 04:17:22;;;;;;;31.23;19.88;;;2.60;72.50;;;;;;4999033;28;20184;-68
2022/03/22 04:19:48;;;;;;;27.98;19.23;;;2.60;72.50;;;;;;4997379;28;20702;-69
2022/03/22 04:22:16;;;;;;;27.67;19.88;;;2.60;72.40;;;;;;4997401;28;20265;-69
2022/03/22 04:24:49;;;;;;;29.38;19.92;;;2.60;72.80;;;;;;4997287;28;20555;-72
2022/03/22 04:32:44;;;;;;;30.65;19.45;;;2.70;71.60;;;;;;5015241;28;20290;-72
2022/03/22 04:35:19;;;;;;;30.92;19.40;;;2.70;71.60;;;;;;4996925;28;20198;-69
2022/03/22 04:37:54;;;;;;;33.95;19.67;;;2.70;71.30;;;;;;4997042;28;20181;-73
2022/03/22 04:40:20;;;;;;;35.03;20.85;;;2.70;71.10;;;;;;4997009;28;20663;-69
2022/03/22 04:42:51;;;;;;;31.67;20.60;;;2.70;71.40;;;;;;4996668;28;20191;-68
2022/03/22 04:45:17;;;;;;;28.92;20.80;;;2.70;72.00;;;;;;4997207;28;20203;-72
2022/03/22 04:47:45;;;;;;;31.52;19.55;;;2.70;71.00;;;;;;5014586;28;20171;-72
2022/03/22 04:50:13;;;;;;;33.00;21.45;;;2.70;71.00;;;;;;4996461;28;20199;-69
2022/03/22 04:58:09;;;;;;;29.88;20.23;;;2.70;70.80;;;;;;5014565;28;20197;-71
2022/03/22 05:00:36;;;;;;;26.52;19.95;;;2.70;70.90;;;;;;4996265;28;20199;-68
2022/03/22 05:03:04;;;;;;;30.25;19.10;;;2.70;70.80;;;;;;4996575;28;20187;-68
2022/03/22 05:08:14;;;;;;;27.63;20.35;;;2.70;70.90;;;;;;5014549;28;20174;-72
2022/03/22 05:10:41;;;;;;;29.42;20.40;;;2.70;70.80;;;;;;4996082;28;20234;-68
2022/03/22 05:13:08;;;;;;;29.95;19.63;;;2.70;70.90;;;;;;4996374;28;20175;-72
2022/03/22 05:15:34;;;;;;;33.17;21.58;;;2.70;71.00;;;;;;4999694;28;20202;-72
2022/03/22 05:18:01;;;;;;;28.90;19.35;;;2.80;71.10;;;;;;5016025;28;20171;-68
2022/03/22 05:20:28;;;;;;;32.28;21.02;;;2.80;71.10;;;;;;5015392;28;20210;-68
2022/03/22 05:22:58;;;;;;;31.02;20.65;;;2.80;71.10;;;;;;5015439;28;20639;-68
2022/03/22 05:25:31;;;;;;;35.03;22.65;;;2.90;71.10;;;;;;5011519;28;20210;-69
2022/03/22 05:28:02;;;;;;;31.77;19.55;;;2.90;71.10;;;;;;5013804;28;20236;-71
2022/03/22 05:30:28;;;;;;;28.73;19.90;;;2.90;71.20;;;;;;5015957;28;20218;-68
2022/03/22 05:32:55;;;;;;;33.42;21.02;;;3.00;71.30;;;;;;5015265;28;20615;-68
2022/03/22 05:35:23;;;;;;;31.92;19.98;;;3.00;71.20;;;;;;5031611;28;20225;-68
2022/03/22 05:37:51;;;;;;;31.95;20.15;;;3.10;71.40;;;;;;5015578;28;20178;-68
2022/03/22 05:40:17;;;;;;;35.03;21.35;;;3.10;72.10;;;;;;5013088;28;20717;-72
2022/03/22 05:42:44;;;;;;;29.60;19.55;;;3.10;71.40;;;;;;4996032;28;20211;-72
2022/03/22 05:45:12;;;;;;;33.20;21.02;;;3.20;71.50;;;;;;4996125;28;20195;-72
2022/03/22 05:47:39;;;;;;;31.30;20.52;;;3.30;71.50;;;;;;4996950;28;20207;-72
2022/03/22 05:50:06;;;;;;;30.85;19.90;;;3.30;71.30;;;;;;5010737;28;20198;-69
2022/03/22 05:52:32;;;;;;;31.83;22.23;;;3.40;71.60;;;;;;5003024;28;20187;-72
2022/03/22 05:54:59;;;;;;;34.40;21.83;;;3.40;71.50;;;;;;4999300;28;20221;-72
2022/03/22 05:57:26;;;;;;;32.75;21.80;;;3.50;71.50;;;;;;5018821;28;20175;-68
2022/03/22 05:59:55;;;;;;;37.72;23.08;;;3.60;71.70;;;;;;5033153;28;20190;-73
2022/03/22 06:02:22;;;;;;;32.70;21.10;;;3.70;72.00;;;;;;5004186;28;20210;-68
2022/03/22 06:04:48;;;;;;;34.88;22.23;;;3.70;71.60;;;;;;5018149;28;20178;-68
2022/03/22 06:07:14;;;;;;;36.20;22.70;;;3.80;71.50;;;;;;4999922;28;20187;-73
2022/03/22 06:09:43;;;;;;;34.80;24.33;;;3.90;71.40;;;;;;5021047;28;20179;-69
2022/03/22 06:12:09;;;;;;;31.55;22.88;;;4.00;71.20;;;;;;5036992;28;20254;-69
2022/03/22 06:14:35;;;;;;;31.37;21.67;;;4.10;71.10;;;;;;5018018;28;20777;-72
2022/03/22 06:17:02;;;;;;;32.33;22.00;;;4.30;71.00;;;;;;5015863;28;20471;-73
2022/03/22 06:19:28;;;;;;;34.60;22.17;;;4.40;70.80;;;;;;5006304;28;20410;-69
2022/03/22 06:21:54;;;;;;;36.28;21.83;;;4.50;71.00;;;;;;4999673;28;20239;-69
2022/03/22 06:24:20;;;;;;;35.15;21.73;;;4.60;72.10;;;;;;5006258;28;20601;-69
2022/03/22 06:26:49;;;;;;;42.13;24.40;;;4.80;72.30;;;;;;5021379;28;20214;-73
2022/03/22 06:29:15;;;;;;;37.88;23.50;;;4.90;72.50;;;;;;5015567;28;20187;-73
2022/03/22 06:31:44;;;;;;;39.05;24.60;;;5.10;73.00;;;;;;5017860;28;20206;-73
2022/03/22 06:34:10;;;;;;;32.83;22.50;;;5.20;73.10;;;;;;5017880;28;20553;-74
2022/03/22 06:36:36;;;;;;;32.03;21.20;;;5.40;74.80;;;;;;5018350;28;20238;-69
2022/03/22 06:39:03;;;;;;;30.85;23.73;;;5.60;75.40;;;;;;5015621;28;20325;-73
2022/03/22 06:41:29;;;;;;;32.30;22.27;;;5.70;75.00;;;;;;5006786;28;20214;-73
2022/03/22 06:43:56;;;;;;;36.03;23.00;;;5.80;74.70;;;;;;5003543;28;20645;-73
2022/03/22 06:46:23;;;;;;;37.63;24.15;;;6.00;74.80;;;;;;5002946;28;20247;-69
2022/03/22 06:48:49;;;;;;;37.28;23.98;;;6.10;74.60;;;;;;5006542;28;20569;-69
2022/03/22 06:51:15;;;;;;;33.88;23.98;;;6.30;74.40;;;;;;5005706;28;20203;-68
2022/03/22 06:53:42;;;;;;;32.45;23.80;;;6.40;75.20;;;;;;5014861;28;20268;-68
2022/03/22 06:56:09;;;;;;;35.28;23.80;;;6.60;75.40;;;;;;5003755;28;20206;-68
2022/03/22 06:58:36;;;;;;;34.72;23.55;;;6.70;75.40;;;;;;5010714;28;20230;-67
2022/03/22 07:01:04;;;;;;;33.67;23.57;;;6.90;75.00;;;;;;5007926;28;20211;-68
2022/03/22 07:03:36;;;;;;;36.30;23.80;;;7.10;74.40;;;;;;5011332;28;20394;-73
2022/03/22 07:06:01;;;;;;;34.45;23.95;;;7.20;74.30;;;;;;5004653;28;20623;-72
2022/03/22 07:08:38;;;;;;;35.70;23.38;;;7.40;74.20;;;;;;5007495;28;20178;-68
2022/03/22 07:13:53;;;;;;;36.50;24.83;;;7.70;74.30;;;;;;5029635;28;20266;-73
2022/03/22 07:16:19;;;;;;;35.72;24.58;;;7.80;73.20;;;;;;5008029;28;20210;-72
2022/03/22 07:18:46;;;;;;;34.03;23.45;;;8.00;74.10;;;;;;5013066;28;20221;-73
2022/03/22 07:21:12;;;;;;;36.47;23.05;;;8.20;73.80;;;;;;5005760;28;20219;-73
2022/03/22 07:23:38;;;;;;;35.35;26.05;;;8.30;73.80;;;;;;5008798;28;20178;-68
2022/03/22 07:26:05;;;;;;;42.33;24.30;;;8.40;73.30;;;;;;5006934;28;20612;-73
2022/03/22 07:28:34;;;;;;;36.78;25.95;;;8.60;72.40;;;;;;4996116;28;20180;-68
2022/03/22 07:31:01;;;;;;;35.83;25.30;;;8.70;72.60;;;;;;4994768;28;20250;-73
2022/03/22 07:33:27;;;;;;;35.28;26.63;;;8.90;72.70;;;;;;5007221;28;20193;-72
2022/03/22 07:36:01;;;;;;;42.40;25.77;;;9.00;71.60;;;;;;4998842;28;20294;-69
2022/03/22 07:38:29;;;;;;;37.22;25.55;;;9.20;70.40;;;;;;4998555;28;20183;-72
2022/03/22 07:41:00;;;;;;;36.55;25.75;;;9.30;71.30;;;;;;4999540;28;20262;-73
2022/03/22 07:43:29;;;;;;;38.60;27.38;;;9.50;71.50;;;;;;5002279;28;20186;-73
2022/03/22 07:46:01;;;;;;;33.80;25.25;;;9.60;70.20;;;;;;5011104;28;20615;-69
2022/03/22 07:48:39;;;;;;;38.05;26.52;;;9.80;70.20;;;;;;5017305;28;20178;-73
2022/03/22 07:54:06;;;;;;;37.70;26.75;;;10.10;67.10;;;;;;5020356;28;20204;-69
2022/03/22 07:56:39;;;;;;;35.97;26.35;;;10.30;67.40;;;;;;5002262;28;20238;-73
2022/03/22 07:59:05;;;;;;;39.47;27.50;;;10.40;66.50;;;;;;5010777;28;20262;-70
2022/03/22 08:01:33;;;;;;;34.90;24.95;;;10.60;66.10;;;;;;5023061;28;20244;-70
2022/03/22 08:04:01;;;;;;;36.25;25.73;;;10.80;67.10;;;;;;4999758;28;20237;-73
2022/03/22 08:06:31;;;;;;;39.40;25.30;;;10.90;66.30;;;;;;5016602;28;20198;-73
2022/03/22 08:08:58;;;;;;;34.25;26.15;;;11.10;65.80;;;;;;5009879;28;20249;-72
2022/03/22 08:11:29;;;;;;;33.65;26.63;;;11.30;65.50;;;;;;4998916;28;20226;-73
2022/03/22 08:13:59;;;;;;;30.60;24.10;;;11.50;65.30;;;;;;5007753;28;20183;-69
2022/03/22 08:16:31;;;;;;;32.20;25.15;;;11.70;64.70;;;;;;5008741;28;20210;-68
2022/03/22 08:19:07;;;;;;;34.88;25.60;;;11.90;64.50;;;;;;5010719;28;20190;-73
2022/03/22 08:21:36;;;;;;;32.78;24.17;;;12.00;64.30;;;;;;5007085;28;20214;-73
2022/03/22 08:24:05;;;;;;;31.63;23.95;;;12.30;64.50;;;;;;5026332;28;20178;-72
2022/03/22 08:26:39;;;;;;;31.50;24.20;;;12.50;65.10;;;;;;4999149;28;20265;-69
2022/03/22 08:29:08;;;;;;;36.50;26.88;;;13.00;65.40;;;;;;4994849;28;20194;-69
2022/03/22 08:31:35;;;;;;;32.73;23.70;;;13.60;64.50;;;;;;4995141;28;20664;-69
2022/03/22 08:34:02;;;;;;;30.03;24.33;;;14.30;64.00;;;;;;5002331;28;20419;-69
2022/03/22 08:36:28;;;;;;;33.80;24.13;;;15.00;62.90;;;;;;5014652;28;20456;-73
2022/03/22 08:38:58;;;;;;;29.60;23.30;;;15.90;61.70;;;;;;5015761;28;20455;-70
2022/03/22 08:41:24;;;;;;;33.00;25.70;;;16.80;60.20;;;;;;5002307;28;20479;-74
2022/03/22 08:43:52;;;;;;;28.60;23.20;;;17.70;59.40;;;;;;5004169;28;20943;-70
2022/03/22 08:46:24;;;;;;;34.00;24.47;;;18.50;58.40;;;;;;5011821;28;20498;-70
2022/03/22 08:48:55;;;;;;;31.20;24.47;;;19.10;57.50;;;;;;5006718;28;20515;-73
2022/03/22 08:51:24;;;;;;;30.70;23.43;;;19.90;57.00;;;;;;5000600;28;20463;-74
2022/03/22 08:53:52;;;;;;;33.50;24.00;;;20.30;55.70;;;;;;5003689;28;20515;-74
2022/03/22 08:56:47;;;;;;;32.90;24.53;;;20.60;55.90;;;;;;5013340;28;20455;-73
2022/03/22 08:59:13;;;;;;;27.70;22.87;;;20.70;55.30;;;;;;5009433;28;20475;-70
2022/03/22 09:01:39;;;;;;;30.47;24.07;;;20.60;55.30;;;;;;5006516;28;20494;-70
2022/03/22 09:06:52;;;;;;;33.27;24.00;;;21.10;54.70;;;;;;5026699;28;21045;-74
2022/03/22 09:09:18;;;;;;;24.53;21.90;;;21.50;54.60;;;;;;5026165;28;20881;-70
2022/03/22 09:11:50;;;;;;;29.90;24.40;;;21.70;54.40;;;;;;4999873;28;20492;-73
2022/03/22 09:14:17;;;;;;;30.33;24.30;;;21.80;54.10;;;;;;5007536;28;20572;-74
2022/03/22 09:16:48;;;;;;;31.77;25.33;;;21.60;54.10;;;;;;5009842;28;20999;-75
2022/03/22 09:19:25;;;;;;;28.73;24.47;;;22.00;52.00;;;;;;5011426;28;20524;-74
2022/03/22 09:21:54;;;;;;;32.33;24.50;;;22.50;50.70;;;;;;5013679;28;20495;-71
2022/03/22 09:24:20;;;;;;;30.57;25.60;;;22.80;50.00;;;;;;5010748;28;20429;-69
2022/03/22 09:26:49;;;;;;;31.70;24.23;;;23.00;50.00;;;;;;5004416;28;20524;-70
2022/03/22 09:29:16;;;;;;;27.13;23.67;;;23.10;49.60;;;;;;5000400;28;20433;-74
2022/03/22 09:31:44;;;;;;;28.83;23.03;;;23.30;49.20;;;;;;5008521;28;20494;-71
2022/03/22 09:34:13;;;;;;;29.30;25.00;;;23.50;48.80;;;;;;5011033;28;20463;-70
2022/03/22 09:36:41;;;;;;;29.10;23.10;;;23.70;48.90;;;;;;5010407;28;21004;-74
2022/03/22 09:39:07;;;;;;;27.90;22.43;;;23.50;50.30;;;;;;5005530;28;20465;-74
2022/03/22 09:41:37;;;;;;;27.30;22.90;;;23.00;51.00;;;;;;5007973;28;20490;-75
2022/03/22 09:44:09;;;;;;;30.33;23.80;;;22.70;51.30;;;;;;5018046;28;20178;-74
2022/03/22 09:46:49;;;;;;;30.30;23.50;;;22.50;52.00;;;;;;4999209;28;20453;-73
2022/03/22 09:49:27;;;;;;;28.33;22.87;;;22.40;52.20;;;;;;5001847;28;20438;-69
2022/03/22 09:51:54;;;;;;;30.17;22.30;;;22.50;52.10;;;;;;5010287;28;20475;-70
2022/03/22 09:54:24;;;;;;;38.20;23.63;;;22.60;52.00;;;;;;5002054;28;20474;-68
2022/03/22 09:56:53;;;;;;;30.33;22.37;;;22.60;52.00;;;;;;5000945;28;20507;-74
2022/03/22 09:59:20;;;;;;;25.27;21.60;;;22.40;52.40;;;;;;5005720;28;20837;-74
2022/03/22 10:01:46;;;;;;;27.83;23.13;;;22.50;52.40;;;;;;5000688;28;20484;-70
2022/03/22 10:04:18;;;;;;;30.03;24.80;;;22.40;52.40;;;;;;5016210;28;20422;-70
2022/03/22 10:06:54;;;;;;;29.30;23.10;;;22.30;52.60;;;;;;5004445;28;20461;-69
2022/03/22 10:09:37;;;;;;;28.17;23.93;;;22.20;52.70;;;;;;5000281;28;20425;-70
2022/03/22 10:12:07;;;;;;;26.63;23.13;;;22.40;52.50;;;;;;5000267;28;20504;-69
2022/03/22 10:14:34;;;;;;;26.40;22.10;;;22.40;51.90;;;;;;4996990;28;20416;-72
2022/03/22 10:17:17;;;;;;;29.37;23.10;;;22.10;52.90;;;;;;4996865;28;20469;-74
2022/03/22 10:19:53;;;;;;;28.43;23.80;;;21.90;53.20;;;;;;5001941;28;20433;-69
2022/03/22 10:25:27;;;;;;;31.77;22.37;;;21.60;53.60;;;;;;4997098;28;20465;-69
2022/03/22 10:27:57;;;;;;;26.10;23.10;;;21.30;53.90;;;;;;5006420;28;20823;-73
2022/03/22 10:30:23;;;;;;;25.10;20.80;;;21.00;54.10;;;;;;5001729;28;20473;-74
2022/03/22 10:32:53;;;;;;;25.47;21.50;;;20.50;54.90;;;;;;4997394;28;20650;-70
2022/03/22 10:35:31;;;;;;;29.10;22.73;;;20.10;55.20;;;;;;5001096;28;21120;-70
2022/03/22 10:38:00;;;;;;;26.10;22.17;;;19.80;55.00;;;;;;5001397;28;20435;-70
2022/03/22 10:40:29;;;;;;;27.90;23.67;;;19.70;52.40;;;;;;5008014;28;20937;-70
2022/03/22 10:43:01;;;;;;;29.10;23.10;;;19.70;53.10;;;;;;5004094;28;20688;-70
2022/03/22 10:45:29;;;;;;;27.93;22.67;;;19.50;55.50;;;;;;5009598;28;20470;-75
2022/03/22 10:47:58;;;;;;;23.70;18.23;;;19.40;54.90;;;;;;5013581;28;20509;-73
2022/03/22 10:50:25;;;;;;;21.73;18.53;;;19.30;55.50;;;;;;5025375;28;20734;-74
2022/03/22 10:53:01;;;;;;;22.70;18.33;;;19.30;52.30;;;;;;5006362;28;20432;-70
2022/03/22 10:55:28;;;;;;;19.00;17.00;;;19.30;54.80;;;;;;5011238;28;20491;-70
2022/03/22 10:57:56;;;;;;;19.43;15.90;;;19.00;56.70;;;;;;5006550;28;20511;-73
2022/03/22 11:00:27;;;;;;;22.67;17.50;;;18.80;57.20;;;;;;5010665;28;20454;-74
2022/03/22 11:02:56;;;;;;;22.43;17.40;;;18.60;57.50;;;;;;5007486;28;20471;-74
2022/03/22 11:05:26;;;;;;;18.90;15.30;;;18.60;57.60;;;;;;5007153;28;20457;-73
2022/03/22 11:07:57;;;;;;;18.80;15.70;;;18.50;57.60;;;;;;5007836;28;20424;-75
2022/03/22 11:10:54;;;;;;;21.27;16.50;;;18.20;58.40;;;;;;5008606;28;20468;-73
2022/03/22 11:13:29;;;;;;;18.53;15.80;;;18.20;58.50;;;;;;4995095;28;20927;-73
2022/03/22 11:16:05;;;;;;;17.73;14.50;;;18.10;58.40;;;;;;5001798;28;20790;-74
2022/03/22 11:18:32;;;;;;;17.63;14.87;;;18.00;58.80;;;;;;5000944;28;20495;-69
2022/03/22 11:21:04;;;;;;;16.93;14.80;;;17.90;58.90;;;;;;5008689;28;20504;-74
2022/03/22 11:23:32;;;;;;;19.60;15.20;;;17.90;58.90;;;;;;5001877;28;20431;-70
2022/03/22 11:26:19;;;;;;;17.60;15.63;;;18.10;54.90;;;;;;5001783;28;20459;-71
2022/03/22 11:28:46;;;;;;;18.27;15.77;;;18.40;56.00;;;;;;5006104;28;20432;-73
2022/03/22 11:31:18;;;;;;;19.20;17.10;;;18.60;57.00;;;;;;5009645;28;20482;-69
2022/03/22 11:37:00;;;;;;;14.90;12.73;;;19.00;53.20;;;;;;5008628;28;20471;-74
2022/03/22 11:42:53;;;;;;;15.60;13.37;;;19.30;52.60;;;;;;5000990;28;20532;-73
2022/03/22 11:45:22;;;;;;;14.90;12.17;;;19.40;52.90;;;;;;4999052;28;20568;-70
2022/03/22 11:47:53;;;;;;;15.07;12.53;;;19.40;54.00;;;;;;4997752;28;20721;-70
2022/03/22 11:50:23;;;;;;;15.30;13.37;;;19.50;53.10;;;;;;5000984;28;21099;-74
2022/03/22 11:52:54;;;;;;;15.20;13.07;;;19.60;51.20;;;;;;5000223;28;20513;-74
2022/03/22 11:55:22;;;;;;;15.90;13.33;;;19.70;51.30;;;;;;4997829;28;20881;-69
2022/03/22 11:58:12;;;;;;;20.07;12.70;;;19.80;51.50;;;;;;5000827;28;20434;-73
2022/03/22 12:01:00;;;;;;;15.20;12.23;;;19.90;51.80;;;;;;4994820;28;20471;-70
2022/03/22 12:03:35;;;;;;;17.17;12.63;;;19.90;51.00;;;;;;5001720;28;20454;-70
2022/03/22 12:06:16;;;;;;;16.50;13.70;;;19.90;52.40;;;;;;4995638;28;20570;-74
2022/03/22 12:08:43;;;;;;;15.30;12.83;;;20.00;52.30;;;;;;5005935;28;20794;-69
2022/03/22 12:11:16;;;;;;;15.30;12.30;;;19.90;54.20;;;;;;4999722;28;20479;-69
2022/03/22 12:13:54;;;;;;;15.40;12.40;;;19.90;54.50;;;;;;5000971;28;20438;-70
2022/03/22 12:16:28;;;;;;;18.97;15.77;;;19.90;52.10;;;;;;4995229;28;20502;-75
2022/03/22 12:18:59;;;;;;;17.03;14.33;;;20.00;52.30;;;;;;4999030;28;20439;-74
2022/03/22 12:21:26;;;;;;;16.37;14.10;;;20.10;51.70;;;;;;5003051;28;20560;-70
2022/03/22 12:23:55;;;;;;;22.03;16.47;;;20.20;52.20;;;;;;4996880;28;20573;-74
2022/03/22 12:26:25;;;;;;;14.70;13.30;;;20.20;51.70;;;;;;4999137;28;20476;-70
2022/03/22 12:28:55;;;;;;;14.40;12.90;;;20.20;52.10;;;;;;5002183;28;20508;-74
2022/03/22 12:31:25;;;;;;;18.37;15.60;;;20.30;51.70;;;;;;4998317;28;21042;-70
2022/03/22 12:33:56;;;;;;;18.10;14.47;;;20.30;51.90;;;;;;5012916;28;20427;-70
2022/03/22 12:36:22;;;;;;;15.20;11.90;;;20.30;51.70;;;;;;4999858;28;20474;-69
2022/03/22 12:38:52;;;;;;;13.60;11.70;;;20.30;53.30;;;;;;4999646;28;20843;-71
2022/03/22 12:41:32;;;;;;;17.67;13.70;;;20.20;53.50;;;;;;4996721;28;20556;-74
2022/03/22 12:44:04;;;;;;;17.17;11.77;;;20.20;54.00;;;;;;5003008;28;20984;-75
2022/03/22 12:46:31;;;;;;;13.33;11.07;;;20.30;53.10;;;;;;5000416;28;20459;-70
2022/03/22 12:49:00;;;;;;;14.70;12.00;;;20.20;54.20;;;;;;5004985;28;20418;-73
2022/03/22 12:51:31;;;;;;;16.20;12.10;;;20.10;54.20;;;;;;5008276;28;20458;-71
2022/03/22 12:54:08;;;;;;;16.87;12.97;;;20.20;53.00;;;;;;5003499;28;20440;-70
2022/03/22 12:56:35;;;;;;;19.80;11.00;;;20.20;53.90;;;;;;4999188;28;20467;-70
2022/03/22 12:59:01;;;;;;;14.70;12.87;;;20.20;53.20;;;;;;5000649;28;20424;-70
2022/03/22 13:01:38;;;;;;;12.90;10.57;;;20.30;52.50;;;;;;5005360;28;20478;-74
2022/03/22 13:04:08;;;;;;;13.33;11.27;;;20.20;54.90;;;;;;4997866;28;20424;-71
2022/03/22 13:06:36;;;;;;;16.40;11.53;;;20.20;54.00;;;;;;4998057;28;20458;-73
2022/03/22 13:11:55;;;;;;;14.90;11.97;;;20.20;54.60;;;;;;5013523;28;20623;-72
2022/03/22 13:17:04;;;;;;;15.60;12.17;;;20.10;54.00;;;;;;5019596;28;20510;-70
2022/03/22 13:19:39;;;;;;;15.87;10.80;;;20.10;53.20;;;;;;5009708;28;20435;-70
2022/03/22 13:22:17;;;;;;;16.50;12.10;;;20.20;52.90;;;;;;5004788;28;21152;-69
2022/03/22 13:24:48;;;;;;;13.93;11.53;;;20.30;53.70;;;;;;5009541;28;20426;-74
2022/03/22 13:27:18;;;;;;;14.90;12.10;;;20.30;52.70;;;;;;5008686;28;20449;-74